sensor_id;sensor_type;location;lat;lon;timestamp;P1;durP1;ratioP1;P2;durP2;ratioP2
11514;SDS011;5814;41.936;25.556;2024-03-08T00:00:58;54.93;;;49.13;;
11514;SDS011;5814;41.936;25.556;2024-03-08T00:03:23;54.30;;;48.47;;
11514;SDS011;5814;41.936;25.556;2024-03-08T00:05:49;55.80;;;49.93;;
11514;SDS011;5814;41.936;25.556;2024-03-08T00:08:14;55.37;;;49.57;;
11514;SDS011;5814;41.936;25.556;2024-03-08T00:10:40;55.90;;;50.07;;
11514;SDS011;5814;41.936;25.556;2024-03-08T00:13:05;54.23;;;48.37;;
11514;SDS011;5814;41.936;25.556;2024-03-08T00:15:31;59.97;;;50.83;;
11514;SDS011;5814;41.936;25.556;2024-03-08T00:17:57;59.57;;;50.37;;
11514;SDS011;5814;41.936;25.556;2024-03-08T00:20:23;61.60;;;49.70;;
11514;SDS011;5814;41.936;25.556;2024-03-08T00:22:48;60.43;;;51.37;;
11514;SDS011;5814;41.936;25.556;2024-03-08T00:25:13;58.03;;;48.67;;
11514;SDS011;5814;41.936;25.556;2024-03-08T00:27:39;57.63;;;49.93;;
11514;SDS011;5814;41.936;25.556;2024-03-08T00:30:06;57.20;;;48.10;;
11514;SDS011;5814;41.936;25.556;2024-03-08T00:32:32;53.13;;;45.40;;
11514;SDS011;5814;41.936;25.556;2024-03-08T00:34:57;53.60;;;47.83;;
11514;SDS011;5814;41.936;25.556;2024-03-08T00:37:23;52.90;;;47.20;;
11514;SDS011;5814;41.936;25.556;2024-03-08T00:39:49;55.50;;;49.33;;
11514;SDS011;5814;41.936;25.556;2024-03-08T00:42:15;56.67;;;49.60;;
11514;SDS011;5814;41.936;25.556;2024-03-08T00:44:41;50.00;;;44.73;;
11514;SDS011;5814;41.936;25.556;2024-03-08T00:47:06;53.30;;;47.67;;
11514;SDS011;5814;41.936;25.556;2024-03-08T00:49:31;50.77;;;45.67;;
11514;SDS011;5814;41.936;25.556;2024-03-08T00:51:57;54.00;;;48.20;;
11514;SDS011;5814;41.936;25.556;2024-03-08T00:54:22;51.33;;;46.23;;
11514;SDS011;5814;41.936;25.556;2024-03-08T00:56:48;54.63;;;48.83;;
11514;SDS011;5814;41.936;25.556;2024-03-08T00:59:13;53.87;;;48.07;;
11514;SDS011;5814;41.936;25.556;2024-03-08T01:01:39;56.30;;;50.53;;
11514;SDS011;5814;41.936;25.556;2024-03-08T01:04:05;57.57;;;51.63;;
11514;SDS011;5814;41.936;25.556;2024-03-08T01:06:31;55.13;;;49.43;;
11514;SDS011;5814;41.936;25.556;2024-03-08T01:08:56;55.53;;;49.93;;
11514;SDS011;5814;41.936;25.556;2024-03-08T01:11:22;59.50;;;53.43;;
11514;SDS011;5814;41.936;25.556;2024-03-08T01:13:47;58.03;;;51.83;;
11514;SDS011;5814;41.936;25.556;2024-03-08T01:16:13;59.97;;;53.70;;
11514;SDS011;5814;41.936;25.556;2024-03-08T01:18:38;57.47;;;51.60;;
11514;SDS011;5814;41.936;25.556;2024-03-08T01:21:04;58.37;;;52.57;;
11514;SDS011;5814;41.936;25.556;2024-03-08T01:23:29;58.13;;;52.17;;
11514;SDS011;5814;41.936;25.556;2024-03-08T01:25:55;58.17;;;52.33;;
11514;SDS011;5814;41.936;25.556;2024-03-08T01:28:25;55.90;;;49.93;;
11514;SDS011;5814;41.936;25.556;2024-03-08T01:30:51;56.53;;;51.03;;
11514;SDS011;5814;41.936;25.556;2024-03-08T01:33:22;57.37;;;51.73;;
11514;SDS011;5814;41.936;25.556;2024-03-08T01:35:50;56.93;;;51.27;;
11514;SDS011;5814;41.936;25.556;2024-03-08T01:38:19;55.93;;;50.30;;
11514;SDS011;5814;41.936;25.556;2024-03-08T01:40:46;55.23;;;49.67;;
11514;SDS011;5814;41.936;25.556;2024-03-08T01:43:30;54.77;;;49.23;;
11514;SDS011;5814;41.936;25.556;2024-03-08T01:45:58;54.97;;;49.37;;
11514;SDS011;5814;41.936;25.556;2024-03-08T01:48:25;57.23;;;51.57;;
11514;SDS011;5814;41.936;25.556;2024-03-08T01:50:51;53.17;;;48.27;;
11514;SDS011;5814;41.936;25.556;2024-03-08T01:53:19;53.80;;;48.73;;
11514;SDS011;5814;41.936;25.556;2024-03-08T01:55:46;51.73;;;46.73;;
11514;SDS011;5814;41.936;25.556;2024-03-08T01:58:13;53.23;;;48.33;;
11514;SDS011;5814;41.936;25.556;2024-03-08T02:00:44;55.37;;;49.83;;
11514;SDS011;5814;41.936;25.556;2024-03-08T02:03:14;55.57;;;50.23;;
11514;SDS011;5814;41.936;25.556;2024-03-08T02:05:40;55.37;;;49.57;;
11514;SDS011;5814;41.936;25.556;2024-03-08T02:08:06;51.50;;;46.67;;
11514;SDS011;5814;41.936;25.556;2024-03-08T02:10:37;51.80;;;47.00;;
11514;SDS011;5814;41.936;25.556;2024-03-08T02:13:03;51.50;;;46.57;;
11514;SDS011;5814;41.936;25.556;2024-03-08T02:18:19;54.50;;;49.63;;
11514;SDS011;5814;41.936;25.556;2024-03-08T02:20:46;54.43;;;48.73;;
11514;SDS011;5814;41.936;25.556;2024-03-08T02:23:13;57.47;;;51.63;;
11514;SDS011;5814;41.936;25.556;2024-03-08T02:25:39;57.00;;;51.17;;
11514;SDS011;5814;41.936;25.556;2024-03-08T02:28:05;56.97;;;51.33;;
11514;SDS011;5814;41.936;25.556;2024-03-08T02:30:30;55.37;;;50.17;;
11514;SDS011;5814;41.936;25.556;2024-03-08T02:32:56;57.97;;;52.50;;
11514;SDS011;5814;41.936;25.556;2024-03-08T02:35:22;57.80;;;52.43;;
11514;SDS011;5814;41.936;25.556;2024-03-08T02:37:47;59.90;;;53.80;;
11514;SDS011;5814;41.936;25.556;2024-03-08T02:40:13;61.17;;;54.93;;
11514;SDS011;5814;41.936;25.556;2024-03-08T02:42:39;59.30;;;53.90;;
11514;SDS011;5814;41.936;25.556;2024-03-08T02:45:04;59.50;;;53.93;;
11514;SDS011;5814;41.936;25.556;2024-03-08T02:47:31;59.80;;;53.80;;
11514;SDS011;5814;41.936;25.556;2024-03-08T02:49:56;61.60;;;55.83;;
11514;SDS011;5814;41.936;25.556;2024-03-08T02:52:22;61.73;;;55.83;;
11514;SDS011;5814;41.936;25.556;2024-03-08T02:54:47;63.17;;;57.17;;
11514;SDS011;5814;41.936;25.556;2024-03-08T02:57:13;62.80;;;56.50;;
11514;SDS011;5814;41.936;25.556;2024-03-08T02:59:39;64.23;;;57.87;;
11514;SDS011;5814;41.936;25.556;2024-03-08T03:02:05;65.43;;;59.07;;
11514;SDS011;5814;41.936;25.556;2024-03-08T03:04:31;66.90;;;60.30;;
11514;SDS011;5814;41.936;25.556;2024-03-08T03:06:59;67.73;;;61.43;;
11514;SDS011;5814;41.936;25.556;2024-03-08T03:09:25;70.40;;;63.03;;
11514;SDS011;5814;41.936;25.556;2024-03-08T03:11:53;73.67;;;66.27;;
11514;SDS011;5814;41.936;25.556;2024-03-08T03:14:20;67.37;;;60.00;;
11514;SDS011;5814;41.936;25.556;2024-03-08T03:16:46;73.80;;;66.47;;
11514;SDS011;5814;41.936;25.556;2024-03-08T03:19:11;73.60;;;65.80;;
11514;SDS011;5814;41.936;25.556;2024-03-08T03:21:37;74.97;;;67.73;;
11514;SDS011;5814;41.936;25.556;2024-03-08T03:24:03;78.17;;;70.53;;
11514;SDS011;5814;41.936;25.556;2024-03-08T03:26:35;75.63;;;68.07;;
11514;SDS011;5814;41.936;25.556;2024-03-08T03:29:06;76.67;;;69.20;;
11514;SDS011;5814;41.936;25.556;2024-03-08T03:31:34;75.23;;;68.20;;
11514;SDS011;5814;41.936;25.556;2024-03-08T03:34:01;72.83;;;66.00;;
11514;SDS011;5814;41.936;25.556;2024-03-08T03:36:30;71.20;;;64.67;;
11514;SDS011;5814;41.936;25.556;2024-03-08T03:38:55;66.03;;;59.83;;
11514;SDS011;5814;41.936;25.556;2024-03-08T03:41:41;66.00;;;59.73;;
11514;SDS011;5814;41.936;25.556;2024-03-08T03:44:07;68.37;;;62.10;;
11514;SDS011;5814;41.936;25.556;2024-03-08T03:46:33;70.57;;;63.77;;
11514;SDS011;5814;41.936;25.556;2024-03-08T03:48:58;69.80;;;63.33;;
11514;SDS011;5814;41.936;25.556;2024-03-08T03:51:24;69.73;;;62.97;;
11514;SDS011;5814;41.936;25.556;2024-03-08T03:53:50;74.30;;;66.83;;
11514;SDS011;5814;41.936;25.556;2024-03-08T03:56:15;75.50;;;68.23;;
11514;SDS011;5814;41.936;25.556;2024-03-08T03:58:41;73.47;;;66.73;;
11514;SDS011;5814;41.936;25.556;2024-03-08T04:01:07;79.03;;;71.40;;
11514;SDS011;5814;41.936;25.556;2024-03-08T04:03:34;87.27;;;78.47;;
11514;SDS011;5814;41.936;25.556;2024-03-08T04:06:00;74.30;;;66.93;;
11514;SDS011;5814;41.936;25.556;2024-03-08T04:08:27;75.97;;;68.53;;
11514;SDS011;5814;41.936;25.556;2024-03-08T04:10:52;78.77;;;70.83;;
11514;SDS011;5814;41.936;25.556;2024-03-08T04:13:17;76.60;;;68.97;;
11514;SDS011;5814;41.936;25.556;2024-03-08T04:15:45;73.77;;;66.23;;
11514;SDS011;5814;41.936;25.556;2024-03-08T04:18:13;79.50;;;71.20;;
11514;SDS011;5814;41.936;25.556;2024-03-08T04:20:38;78.33;;;70.53;;
11514;SDS011;5814;41.936;25.556;2024-03-08T04:23:05;76.23;;;68.40;;
11514;SDS011;5814;41.936;25.556;2024-03-08T04:25:31;81.40;;;73.33;;
11514;SDS011;5814;41.936;25.556;2024-03-08T04:27:56;81.10;;;72.93;;
11514;SDS011;5814;41.936;25.556;2024-03-08T04:30:21;81.50;;;73.27;;
11514;SDS011;5814;41.936;25.556;2024-03-08T04:32:47;81.27;;;73.30;;
11514;SDS011;5814;41.936;25.556;2024-03-08T04:35:13;85.33;;;77.10;;
11514;SDS011;5814;41.936;25.556;2024-03-08T04:37:39;89.87;;;80.23;;
11514;SDS011;5814;41.936;25.556;2024-03-08T04:40:05;83.93;;;75.03;;
11514;SDS011;5814;41.936;25.556;2024-03-08T04:42:31;88.43;;;79.43;;
11514;SDS011;5814;41.936;25.556;2024-03-08T04:44:57;91.83;;;82.70;;
11514;SDS011;5814;41.936;25.556;2024-03-08T04:47:24;91.07;;;81.80;;
11514;SDS011;5814;41.936;25.556;2024-03-08T04:49:50;92.60;;;83.87;;
11514;SDS011;5814;41.936;25.556;2024-03-08T04:52:15;90.40;;;81.27;;
11514;SDS011;5814;41.936;25.556;2024-03-08T04:54:41;93.70;;;84.60;;
11514;SDS011;5814;41.936;25.556;2024-03-08T04:57:07;93.27;;;83.80;;
11514;SDS011;5814;41.936;25.556;2024-03-08T04:59:32;91.43;;;82.33;;
11514;SDS011;5814;41.936;25.556;2024-03-08T05:01:58;94.03;;;84.87;;
11514;SDS011;5814;41.936;25.556;2024-03-08T05:04:23;92.17;;;82.73;;
11514;SDS011;5814;41.936;25.556;2024-03-08T05:06:48;94.67;;;85.13;;
11514;SDS011;5814;41.936;25.556;2024-03-08T05:09:14;95.50;;;86.13;;
11514;SDS011;5814;41.936;25.556;2024-03-08T05:11:44;88.93;;;79.93;;
11514;SDS011;5814;41.936;25.556;2024-03-08T05:14:10;85.83;;;77.07;;
11514;SDS011;5814;41.936;25.556;2024-03-08T05:16:37;82.73;;;74.50;;
11514;SDS011;5814;41.936;25.556;2024-03-08T05:19:03;85.77;;;76.73;;
11514;SDS011;5814;41.936;25.556;2024-03-08T05:21:28;85.73;;;77.00;;
11514;SDS011;5814;41.936;25.556;2024-03-08T05:23:54;72.73;;;65.53;;
11514;SDS011;5814;41.936;25.556;2024-03-08T05:26:19;84.63;;;76.17;;
11514;SDS011;5814;41.936;25.556;2024-03-08T05:28:45;140.30;;;114.60;;
11514;SDS011;5814;41.936;25.556;2024-03-08T05:31:17;81.23;;;72.50;;
11514;SDS011;5814;41.936;25.556;2024-03-08T05:33:49;78.20;;;70.30;;
11514;SDS011;5814;41.936;25.556;2024-03-08T05:36:15;82.13;;;73.93;;
11514;SDS011;5814;41.936;25.556;2024-03-08T05:38:42;81.83;;;72.97;;
11514;SDS011;5814;41.936;25.556;2024-03-08T05:41:08;77.00;;;69.20;;
11514;SDS011;5814;41.936;25.556;2024-03-08T05:43:37;77.77;;;69.80;;
11514;SDS011;5814;41.936;25.556;2024-03-08T05:46:03;75.13;;;67.17;;
11514;SDS011;5814;41.936;25.556;2024-03-08T05:48:31;71.00;;;63.60;;
11514;SDS011;5814;41.936;25.556;2024-03-08T05:50:57;72.23;;;64.97;;
11514;SDS011;5814;41.936;25.556;2024-03-08T05:53:23;75.23;;;67.70;;
11514;SDS011;5814;41.936;25.556;2024-03-08T05:55:48;71.77;;;64.80;;
11514;SDS011;5814;41.936;25.556;2024-03-08T05:58:14;78.00;;;70.47;;
11514;SDS011;5814;41.936;25.556;2024-03-08T06:00:40;76.87;;;69.13;;
11514;SDS011;5814;41.936;25.556;2024-03-08T06:03:05;73.03;;;66.30;;
11514;SDS011;5814;41.936;25.556;2024-03-08T06:05:31;73.60;;;66.53;;
11514;SDS011;5814;41.936;25.556;2024-03-08T06:07:56;73.70;;;66.40;;
11514;SDS011;5814;41.936;25.556;2024-03-08T06:10:21;75.13;;;67.57;;
11514;SDS011;5814;41.936;25.556;2024-03-08T06:12:47;74.50;;;67.20;;
11514;SDS011;5814;41.936;25.556;2024-03-08T06:15:12;74.40;;;67.10;;
11514;SDS011;5814;41.936;25.556;2024-03-08T06:17:40;72.63;;;65.63;;
11514;SDS011;5814;41.936;25.556;2024-03-08T06:20:06;67.67;;;61.40;;
11514;SDS011;5814;41.936;25.556;2024-03-08T06:22:38;70.90;;;64.13;;
11514;SDS011;5814;41.936;25.556;2024-03-08T06:25:07;73.87;;;67.20;;
11514;SDS011;5814;41.936;25.556;2024-03-08T06:27:33;71.93;;;65.03;;
11514;SDS011;5814;41.936;25.556;2024-03-08T06:29:59;67.80;;;61.37;;
11514;SDS011;5814;41.936;25.556;2024-03-08T06:32:29;69.60;;;62.67;;
11514;SDS011;5814;41.936;25.556;2024-03-08T06:34:55;81.90;;;74.03;;
11514;SDS011;5814;41.936;25.556;2024-03-08T06:37:21;71.13;;;64.70;;
11514;SDS011;5814;41.936;25.556;2024-03-08T06:39:49;74.63;;;67.67;;
11514;SDS011;5814;41.936;25.556;2024-03-08T06:42:16;68.60;;;62.27;;
11514;SDS011;5814;41.936;25.556;2024-03-08T06:44:42;67.17;;;60.57;;
11514;SDS011;5814;41.936;25.556;2024-03-08T06:47:14;61.23;;;55.47;;
11514;SDS011;5814;41.936;25.556;2024-03-08T06:49:41;65.50;;;59.50;;
11514;SDS011;5814;41.936;25.556;2024-03-08T06:52:07;65.67;;;59.07;;
11514;SDS011;5814;41.936;25.556;2024-03-08T06:54:34;62.87;;;56.70;;
11514;SDS011;5814;41.936;25.556;2024-03-08T06:57:01;60.97;;;55.17;;
11514;SDS011;5814;41.936;25.556;2024-03-08T06:59:28;61.37;;;55.50;;
11514;SDS011;5814;41.936;25.556;2024-03-08T07:01:54;59.87;;;54.57;;
11514;SDS011;5814;41.936;25.556;2024-03-08T07:04:19;59.27;;;53.80;;
11514;SDS011;5814;41.936;25.556;2024-03-08T07:06:46;56.57;;;51.17;;
11514;SDS011;5814;41.936;25.556;2024-03-08T07:09:14;56.73;;;51.57;;
11514;SDS011;5814;41.936;25.556;2024-03-08T07:11:41;56.77;;;51.37;;
11514;SDS011;5814;41.936;25.556;2024-03-08T07:14:07;58.67;;;53.27;;
11514;SDS011;5814;41.936;25.556;2024-03-08T07:16:33;61.03;;;55.13;;
11514;SDS011;5814;41.936;25.556;2024-03-08T07:19:00;58.43;;;52.90;;
11514;SDS011;5814;41.936;25.556;2024-03-08T07:21:26;59.70;;;54.17;;
11514;SDS011;5814;41.936;25.556;2024-03-08T07:23:52;53.63;;;48.47;;
11514;SDS011;5814;41.936;25.556;2024-03-08T07:26:26;58.67;;;53.17;;
11514;SDS011;5814;41.936;25.556;2024-03-08T07:28:52;57.70;;;52.03;;
11514;SDS011;5814;41.936;25.556;2024-03-08T07:31:20;52.60;;;47.30;;
11514;SDS011;5814;41.936;25.556;2024-03-08T07:33:51;47.20;;;42.70;;
11514;SDS011;5814;41.936;25.556;2024-03-08T07:36:18;51.20;;;45.97;;
11514;SDS011;5814;41.936;25.556;2024-03-08T07:38:44;48.83;;;40.40;;
11514;SDS011;5814;41.936;25.556;2024-03-08T07:41:12;45.30;;;40.60;;
11514;SDS011;5814;41.936;25.556;2024-03-08T07:43:38;66.70;;;58.90;;
11514;SDS011;5814;41.936;25.556;2024-03-08T07:46:03;45.73;;;40.93;;
11514;SDS011;5814;41.936;25.556;2024-03-08T07:48:29;49.17;;;42.30;;
11514;SDS011;5814;41.936;25.556;2024-03-08T07:50:55;45.60;;;37.60;;
11514;SDS011;5814;41.936;25.556;2024-03-08T07:53:21;42.07;;;37.63;;
11514;SDS011;5814;41.936;25.556;2024-03-08T07:55:46;42.47;;;37.97;;
11514;SDS011;5814;41.936;25.556;2024-03-08T07:58:12;40.53;;;36.33;;
11514;SDS011;5814;41.936;25.556;2024-03-08T08:00:38;40.63;;;36.70;;
11514;SDS011;5814;41.936;25.556;2024-03-08T08:03:04;42.80;;;38.47;;
11514;SDS011;5814;41.936;25.556;2024-03-08T08:05:30;36.90;;;33.20;;
11514;SDS011;5814;41.936;25.556;2024-03-08T08:08:00;39.47;;;35.17;;
11514;SDS011;5814;41.936;25.556;2024-03-08T08:10:28;39.80;;;35.67;;
11514;SDS011;5814;41.936;25.556;2024-03-08T08:12:53;37.90;;;33.93;;
11514;SDS011;5814;41.936;25.556;2024-03-08T08:15:19;41.70;;;37.33;;
11514;SDS011;5814;41.936;25.556;2024-03-08T08:17:45;43.00;;;38.70;;
11514;SDS011;5814;41.936;25.556;2024-03-08T08:20:11;38.10;;;34.40;;
11514;SDS011;5814;41.936;25.556;2024-03-08T08:22:41;41.70;;;37.20;;
11514;SDS011;5814;41.936;25.556;2024-03-08T08:25:08;44.87;;;40.43;;
11514;SDS011;5814;41.936;25.556;2024-03-08T08:27:33;41.63;;;37.60;;
11514;SDS011;5814;41.936;25.556;2024-03-08T08:30:01;37.70;;;34.10;;
11514;SDS011;5814;41.936;25.556;2024-03-08T08:32:27;40.13;;;36.07;;
11514;SDS011;5814;41.936;25.556;2024-03-08T08:34:53;41.30;;;37.20;;
11514;SDS011;5814;41.936;25.556;2024-03-08T08:37:18;49.10;;;43.83;;
11514;SDS011;5814;41.936;25.556;2024-03-08T08:39:43;51.13;;;44.23;;
11514;SDS011;5814;41.936;25.556;2024-03-08T08:42:09;41.90;;;36.47;;
11514;SDS011;5814;41.936;25.556;2024-03-08T08:44:35;35.77;;;32.17;;
11514;SDS011;5814;41.936;25.556;2024-03-08T08:47:01;35.17;;;31.77;;
11514;SDS011;5814;41.936;25.556;2024-03-08T08:49:28;43.83;;;39.63;;
11514;SDS011;5814;41.936;25.556;2024-03-08T08:51:55;44.83;;;39.97;;
11514;SDS011;5814;41.936;25.556;2024-03-08T08:54:23;41.60;;;37.17;;
11514;SDS011;5814;41.936;25.556;2024-03-08T08:56:50;40.23;;;36.20;;
11514;SDS011;5814;41.936;25.556;2024-03-08T08:59:16;42.57;;;38.20;;
11514;SDS011;5814;41.936;25.556;2024-03-08T09:01:44;42.97;;;38.50;;
11514;SDS011;5814;41.936;25.556;2024-03-08T09:04:13;41.47;;;36.60;;
11514;SDS011;5814;41.936;25.556;2024-03-08T09:06:38;41.67;;;37.13;;
11514;SDS011;5814;41.936;25.556;2024-03-08T09:09:06;43.17;;;38.67;;
11514;SDS011;5814;41.936;25.556;2024-03-08T09:11:34;44.73;;;40.10;;
11514;SDS011;5814;41.936;25.556;2024-03-08T09:14:00;47.00;;;42.00;;
11514;SDS011;5814;41.936;25.556;2024-03-08T09:16:27;43.07;;;38.47;;
11514;SDS011;5814;41.936;25.556;2024-03-08T09:18:52;49.37;;;44.13;;
11514;SDS011;5814;41.936;25.556;2024-03-08T09:21:18;50.40;;;44.63;;
11514;SDS011;5814;41.936;25.556;2024-03-08T09:23:43;43.23;;;38.97;;
11514;SDS011;5814;41.936;25.556;2024-03-08T09:26:10;42.93;;;38.50;;
11514;SDS011;5814;41.936;25.556;2024-03-08T09:28:37;46.20;;;41.57;;
11514;SDS011;5814;41.936;25.556;2024-03-08T09:31:03;39.63;;;35.83;;
11514;SDS011;5814;41.936;25.556;2024-03-08T09:33:30;40.70;;;36.67;;
11514;SDS011;5814;41.936;25.556;2024-03-08T09:35:56;39.53;;;35.63;;
11514;SDS011;5814;41.936;25.556;2024-03-08T09:38:23;37.50;;;33.77;;
11514;SDS011;5814;41.936;25.556;2024-03-08T09:40:50;37.10;;;33.23;;
11514;SDS011;5814;41.936;25.556;2024-03-08T09:43:16;38.53;;;34.67;;
11514;SDS011;5814;41.936;25.556;2024-03-08T09:45:43;33.10;;;30.00;;
11514;SDS011;5814;41.936;25.556;2024-03-08T09:48:14;36.13;;;32.33;;
11514;SDS011;5814;41.936;25.556;2024-03-08T09:50:44;35.67;;;32.27;;
11514;SDS011;5814;41.936;25.556;2024-03-08T09:53:11;33.87;;;30.40;;
11514;SDS011;5814;41.936;25.556;2024-03-08T09:55:37;32.77;;;29.57;;
11514;SDS011;5814;41.936;25.556;2024-03-08T09:58:07;39.47;;;35.67;;
11514;SDS011;5814;41.936;25.556;2024-03-08T10:00:53;29.43;;;26.57;;
11514;SDS011;5814;41.936;25.556;2024-03-08T10:03:22;32.53;;;29.50;;
11514;SDS011;5814;41.936;25.556;2024-03-08T10:05:47;34.13;;;30.83;;
11514;SDS011;5814;41.936;25.556;2024-03-08T10:08:13;34.33;;;31.13;;
11514;SDS011;5814;41.936;25.556;2024-03-08T10:10:39;25.97;;;23.53;;
11514;SDS011;5814;41.936;25.556;2024-03-08T10:13:08;29.73;;;26.93;;
11514;SDS011;5814;41.936;25.556;2024-03-08T10:15:35;30.60;;;27.70;;
11514;SDS011;5814;41.936;25.556;2024-03-08T10:18:01;24.57;;;22.07;;
11514;SDS011;5814;41.936;25.556;2024-03-08T10:20:27;29.27;;;26.67;;
11514;SDS011;5814;41.936;25.556;2024-03-08T10:23:00;24.10;;;21.80;;
11514;SDS011;5814;41.936;25.556;2024-03-08T10:25:28;21.47;;;19.70;;
11514;SDS011;5814;41.936;25.556;2024-03-08T10:27:55;20.40;;;18.87;;
11514;SDS011;5814;41.936;25.556;2024-03-08T10:30:21;20.37;;;18.83;;
11514;SDS011;5814;41.936;25.556;2024-03-08T10:32:47;22.10;;;20.40;;
11514;SDS011;5814;41.936;25.556;2024-03-08T10:35:13;21.03;;;19.43;;
11514;SDS011;5814;41.936;25.556;2024-03-08T10:37:44;20.87;;;19.27;;
11514;SDS011;5814;41.936;25.556;2024-03-08T10:40:18;29.40;;;26.80;;
11514;SDS011;5814;41.936;25.556;2024-03-08T10:42:52;24.33;;;22.43;;
11514;SDS011;5814;41.936;25.556;2024-03-08T10:48:08;25.53;;;23.33;;
11514;SDS011;5814;41.936;25.556;2024-03-08T10:50:35;20.43;;;18.83;;
11514;SDS011;5814;41.936;25.556;2024-03-08T10:53:01;22.03;;;20.13;;
11514;SDS011;5814;41.936;25.556;2024-03-08T10:55:31;20.70;;;19.03;;
11514;SDS011;5814;41.936;25.556;2024-03-08T10:57:59;19.10;;;17.77;;
11514;SDS011;5814;41.936;25.556;2024-03-08T11:00:25;23.50;;;21.57;;
11514;SDS011;5814;41.936;25.556;2024-03-08T11:02:54;17.80;;;16.53;;
11514;SDS011;5814;41.936;25.556;2024-03-08T11:05:32;23.20;;;21.23;;
11514;SDS011;5814;41.936;25.556;2024-03-08T11:08:05;18.40;;;17.10;;
11514;SDS011;5814;41.936;25.556;2024-03-08T11:10:47;14.63;;;13.63;;
11514;SDS011;5814;41.936;25.556;2024-03-08T11:13:36;19.80;;;18.23;;
11514;SDS011;5814;41.936;25.556;2024-03-08T11:16:51;17.30;;;15.97;;
11514;SDS011;5814;41.936;25.556;2024-03-08T11:19:00;17.87;;;16.53;;
11514;SDS011;5814;41.936;25.556;2024-03-08T11:21:31;20.73;;;19.00;;
11514;SDS011;5814;41.936;25.556;2024-03-08T11:24:11;17.77;;;16.40;;
11514;SDS011;5814;41.936;25.556;2024-03-08T11:26:38;18.17;;;16.67;;
11514;SDS011;5814;41.936;25.556;2024-03-08T11:32:08;22.13;;;20.07;;
11514;SDS011;5814;41.936;25.556;2024-03-08T11:34:35;20.27;;;18.90;;
11514;SDS011;5814;41.936;25.556;2024-03-08T11:37:00;16.37;;;15.17;;
11514;SDS011;5814;41.936;25.556;2024-03-08T11:39:29;18.50;;;17.23;;
11514;SDS011;5814;41.936;25.556;2024-03-08T11:41:55;18.80;;;17.60;;
11514;SDS011;5814;41.936;25.556;2024-03-08T11:44:21;19.70;;;18.47;;
11514;SDS011;5814;41.936;25.556;2024-03-08T11:46:46;19.57;;;18.23;;
11514;SDS011;5814;41.936;25.556;2024-03-08T11:49:16;20.00;;;18.63;;
11514;SDS011;5814;41.936;25.556;2024-03-08T11:51:41;16.17;;;15.07;;
11514;SDS011;5814;41.936;25.556;2024-03-08T11:54:10;17.60;;;16.43;;
11514;SDS011;5814;41.936;25.556;2024-03-08T11:56:38;16.33;;;15.23;;
11514;SDS011;5814;41.936;25.556;2024-03-08T11:59:03;14.90;;;13.93;;
11514;SDS011;5814;41.936;25.556;2024-03-08T12:01:30;16.70;;;15.23;;
11514;SDS011;5814;41.936;25.556;2024-03-08T12:03:56;15.87;;;14.53;;
11514;SDS011;5814;41.936;25.556;2024-03-08T12:06:24;14.10;;;12.93;;
11514;SDS011;5814;41.936;25.556;2024-03-08T12:08:50;11.20;;;10.50;;
11514;SDS011;5814;41.936;25.556;2024-03-08T12:11:19;14.03;;;12.97;;
11514;SDS011;5814;41.936;25.556;2024-03-08T12:13:48;13.87;;;12.80;;
11514;SDS011;5814;41.936;25.556;2024-03-08T12:16:16;18.60;;;17.07;;
11514;SDS011;5814;41.936;25.556;2024-03-08T12:18:50;19.90;;;18.27;;
11514;SDS011;5814;41.936;25.556;2024-03-08T12:21:17;20.33;;;18.53;;
11514;SDS011;5814;41.936;25.556;2024-03-08T12:23:46;18.27;;;16.60;;
11514;SDS011;5814;41.936;25.556;2024-03-08T12:26:16;15.17;;;14.17;;
11514;SDS011;5814;41.936;25.556;2024-03-08T12:28:43;16.87;;;15.77;;
11514;SDS011;5814;41.936;25.556;2024-03-08T12:31:11;28.07;;;21.90;;
11514;SDS011;5814;41.936;25.556;2024-03-08T12:33:53;17.87;;;16.37;;
11514;SDS011;5814;41.936;25.556;2024-03-08T12:36:24;18.23;;;16.83;;
11514;SDS011;5814;41.936;25.556;2024-03-08T12:38:50;19.37;;;17.93;;
11514;SDS011;5814;41.936;25.556;2024-03-08T12:41:19;20.53;;;18.63;;
11514;SDS011;5814;41.936;25.556;2024-03-08T12:43:46;21.07;;;19.43;;
11514;SDS011;5814;41.936;25.556;2024-03-08T12:46:15;23.37;;;21.47;;
11514;SDS011;5814;41.936;25.556;2024-03-08T12:48:41;19.43;;;17.63;;
11514;SDS011;5814;41.936;25.556;2024-03-08T12:51:07;20.07;;;18.23;;
11514;SDS011;5814;41.936;25.556;2024-03-08T12:53:32;19.30;;;17.80;;
11514;SDS011;5814;41.936;25.556;2024-03-08T12:55:58;23.27;;;21.27;;
11514;SDS011;5814;41.936;25.556;2024-03-08T12:58:24;22.87;;;21.17;;
11514;SDS011;5814;41.936;25.556;2024-03-08T13:00:51;25.03;;;22.83;;
11514;SDS011;5814;41.936;25.556;2024-03-08T13:03:16;22.83;;;21.00;;
11514;SDS011;5814;41.936;25.556;2024-03-08T13:05:42;25.07;;;22.87;;
11514;SDS011;5814;41.936;25.556;2024-03-08T13:08:08;20.63;;;18.97;;
11514;SDS011;5814;41.936;25.556;2024-03-08T13:10:41;23.73;;;21.70;;
11514;SDS011;5814;41.936;25.556;2024-03-08T13:13:08;24.40;;;22.60;;
11514;SDS011;5814;41.936;25.556;2024-03-08T13:15:37;27.23;;;25.17;;
11514;SDS011;5814;41.936;25.556;2024-03-08T13:18:03;27.57;;;25.40;;
11514;SDS011;5814;41.936;25.556;2024-03-08T13:20:28;25.90;;;23.97;;
11514;SDS011;5814;41.936;25.556;2024-03-08T13:22:55;26.10;;;23.90;;
11514;SDS011;5814;41.936;25.556;2024-03-08T13:25:21;21.97;;;20.07;;
11514;SDS011;5814;41.936;25.556;2024-03-08T13:27:46;21.83;;;20.23;;
11514;SDS011;5814;41.936;25.556;2024-03-08T13:30:12;19.13;;;17.63;;
11514;SDS011;5814;41.936;25.556;2024-03-08T13:32:42;21.20;;;19.50;;
11514;SDS011;5814;41.936;25.556;2024-03-08T13:35:10;17.27;;;16.20;;
11514;SDS011;5814;41.936;25.556;2024-03-08T13:37:42;22.50;;;20.77;;
11514;SDS011;5814;41.936;25.556;2024-03-08T13:40:08;18.20;;;16.73;;
11514;SDS011;5814;41.936;25.556;2024-03-08T13:42:43;14.90;;;13.93;;
11514;SDS011;5814;41.936;25.556;2024-03-08T13:45:09;15.73;;;14.10;;
11514;SDS011;5814;41.936;25.556;2024-03-08T13:47:39;13.43;;;12.43;;
11514;SDS011;5814;41.936;25.556;2024-03-08T13:50:06;15.60;;;14.47;;
11514;SDS011;5814;41.936;25.556;2024-03-08T13:52:33;14.20;;;12.97;;
11514;SDS011;5814;41.936;25.556;2024-03-08T13:55:00;13.17;;;12.17;;
11514;SDS011;5814;41.936;25.556;2024-03-08T13:57:26;13.80;;;12.87;;
11514;SDS011;5814;41.936;25.556;2024-03-08T13:59:52;17.03;;;13.07;;
11514;SDS011;5814;41.936;25.556;2024-03-08T14:02:18;16.27;;;15.07;;
11514;SDS011;5814;41.936;25.556;2024-03-08T14:04:43;14.47;;;13.50;;
11514;SDS011;5814;41.936;25.556;2024-03-08T14:07:08;14.27;;;13.37;;
11514;SDS011;5814;41.936;25.556;2024-03-08T14:09:36;17.33;;;15.87;;
11514;SDS011;5814;41.936;25.556;2024-03-08T14:12:05;16.57;;;14.90;;
11514;SDS011;5814;41.936;25.556;2024-03-08T14:14:32;14.57;;;13.27;;
11514;SDS011;5814;41.936;25.556;2024-03-08T14:17:00;13.73;;;12.83;;
11514;SDS011;5814;41.936;25.556;2024-03-08T14:19:26;13.63;;;12.70;;
11514;SDS011;5814;41.936;25.556;2024-03-08T14:21:52;11.33;;;10.73;;
11514;SDS011;5814;41.936;25.556;2024-03-08T14:24:18;14.23;;;13.23;;
11514;SDS011;5814;41.936;25.556;2024-03-08T14:26:44;13.73;;;12.83;;
11514;SDS011;5814;41.936;25.556;2024-03-08T14:29:10;14.33;;;13.30;;